createdAt,value
2019-01-14T00:02:01.234Z,61.58
2019-01-14T00:04:27.235Z,61.84
2019-01-14T00:06:53.105Z,61.79
2019-01-14T00:09:23.420Z,62.50
2019-01-14T00:11:46.774Z,62.33
2019-01-14T00:14:12.769Z,62.62
2019-01-14T00:16:38.726Z,62.48
2019-01-14T00:19:05.468Z,62.48
2019-01-14T00:21:31.366Z,62.92
2019-01-14T00:23:57.233Z,63.07
2019-01-14T00:26:23.106Z,62.62
2019-01-14T00:28:48.977Z,62.99
2019-01-14T00:31:14.947Z,62.89
2019-01-14T00:33:40.793Z,63.13
2019-01-14T00:36:06.793Z,62.80
2019-01-14T00:38:32.699Z,63.21
2019-01-14T00:40:58.663Z,62.78
2019-01-14T00:43:24.534Z,63.19
2019-01-14T00:45:50.457Z,63.12
2019-01-14T00:48:16.332Z,63.29
2019-01-14T00:50:42.199Z,63.03
2019-01-14T00:53:08.085Z,63.83
2019-01-14T00:55:33.967Z,63.39
2019-01-14T00:57:59.855Z,63.41
2019-01-14T01:00:25.714Z,63.73
2019-01-14T01:02:51.826Z,63.71
2019-01-14T01:05:17.783Z,64.30
2019-01-14T01:07:43.746Z,63.44
2019-01-14T01:10:11.821Z,63.62
2019-01-14T01:12:37.811Z,63.73
2019-01-14T01:15:06.004Z,63.90
2019-01-14T01:17:31.923Z,64.12
2019-01-14T01:19:58.095Z,63.74
2019-01-14T01:22:23.978Z,63.45
2019-01-14T01:24:49.840Z,63.43
2019-01-14T01:27:15.717Z,63.02
2019-01-14T01:29:41.608Z,63.12
2019-01-14T01:32:07.512Z,63.59
2019-01-14T01:34:33.378Z,62.96
2019-01-14T01:36:59.358Z,63.00
2019-01-14T01:39:25.402Z,63.21
2019-01-14T01:41:51.317Z,63.31
2019-01-14T01:44:17.203Z,63.36
2019-01-14T01:46:43.210Z,63.39
2019-01-14T01:49:09.089Z,63.09
2019-01-14T01:51:34.955Z,63.38
2019-01-14T01:54:00.883Z,63.25
2019-01-14T01:56:26.776Z,63.51
2019-01-14T01:58:52.673Z,63.52
2019-01-14T02:01:18.865Z,63.42
2019-01-14T02:03:44.764Z,63.54
2019-01-14T02:06:10.637Z,63.22
2019-01-14T02:08:36.630Z,63.77
2019-01-14T02:11:02.612Z,63.16
2019-01-14T02:13:28.471Z,62.89
2019-01-14T02:15:54.477Z,62.89
2019-01-14T02:18:20.653Z,63.30
2019-01-14T02:20:46.979Z,63.05
2019-01-14T02:23:12.849Z,62.91
2019-01-14T02:25:38.718Z,63.06
2019-01-14T02:28:04.595Z,63.16
2019-01-14T02:30:30.493Z,63.34
2019-01-14T02:32:56.345Z,63.24
2019-01-14T02:35:22.263Z,63.04
2019-01-14T02:37:48.151Z,63.63
2019-01-14T02:40:16.252Z,64.06
2019-01-14T02:42:42.158Z,64.78
2019-01-14T02:45:09.496Z,64.61
2019-01-14T02:47:35.327Z,64.14
2019-01-14T02:50:01.706Z,64.28
2019-01-14T02:52:27.579Z,64.67
2019-01-14T02:54:53.442Z,64.11
2019-01-14T02:57:19.389Z,64.71
2019-01-14T02:59:45.278Z,64.18
2019-01-14T03:02:11.147Z,64.45
2019-01-14T03:04:37.041Z,64.53
2019-01-14T03:07:03.024Z,64.30
2019-01-14T03:09:28.896Z,64.95
2019-01-14T03:11:54.800Z,64.68
2019-01-14T03:14:20.766Z,64.66
2019-01-14T03:16:46.634Z,64.79
2019-01-14T03:19:12.596Z,64.90
2019-01-14T03:21:38.879Z,64.65
2019-01-14T03:24:04.755Z,64.69
2019-01-14T03:26:30.691Z,64.66
2019-01-14T03:28:56.532Z,64.90
2019-01-14T03:31:22.447Z,65.42
2019-01-14T03:33:48.311Z,65.85
2019-01-14T03:36:14.203Z,65.92
2019-01-14T03:38:40.080Z,65.16
2019-01-14T03:41:05.937Z,65.22
2019-01-14T03:43:31.838Z,65.18
2019-01-14T03:45:57.786Z,65.58
2019-01-14T03:48:23.753Z,65.78
2019-01-14T03:50:49.724Z,66.22
2019-01-14T03:53:15.621Z,66.33
2019-01-14T03:55:41.450Z,65.84
2019-01-14T03:58:07.320Z,65.53
2019-01-14T04:00:33.181Z,65.02
2019-01-14T04:02:59.075Z,65.13
2019-01-14T04:05:24.982Z,65.29
2019-01-14T04:07:50.894Z,66.23
2019-01-14T04:10:16.892Z,66.54
2019-01-14T04:12:42.767Z,65.58
2019-01-14T04:15:11.253Z,65.58
2019-01-14T04:17:37.122Z,65.84
2019-01-14T04:20:06.533Z,66.55
2019-01-14T04:22:33.219Z,66.16
2019-01-14T04:24:59.091Z,66.88
2019-01-14T04:27:24.956Z,67.09
2019-01-14T04:29:50.847Z,67.10
2019-01-14T04:32:16.687Z,66.50
2019-01-14T04:34:42.559Z,66.19
2019-01-14T04:37:08.520Z,65.99
2019-01-14T04:39:34.431Z,66.84
2019-01-14T04:42:00.329Z,66.17
2019-01-14T04:44:26.316Z,66.16
2019-01-14T04:46:52.208Z,67.09
2019-01-14T04:49:18.061Z,66.71
2019-01-14T04:51:43.935Z,66.79
2019-01-14T04:54:09.879Z,66.59
2019-01-14T04:56:35.811Z,66.46
2019-01-14T04:59:01.868Z,66.44
2019-01-14T05:01:27.837Z,66.57
2019-01-14T05:03:53.745Z,67.02
2019-01-14T05:06:19.627Z,66.49
2019-01-14T05:08:45.490Z,66.77
2019-01-14T05:11:11.365Z,67.35
2019-01-14T05:13:37.246Z,67.29
2019-01-14T05:16:03.126Z,67.07
2019-01-14T05:18:28.992Z,67.12
2019-01-14T05:20:54.910Z,66.66
2019-01-14T05:23:21.102Z,66.27
2019-01-14T05:25:46.995Z,65.75
2019-01-14T05:28:12.893Z,65.30
2019-01-14T05:30:38.902Z,65.88
2019-01-14T05:33:04.888Z,65.97
2019-01-14T05:35:31.018Z,66.14
2019-01-14T05:37:56.891Z,66.25
2019-01-14T05:40:24.092Z,66.64
2019-01-14T05:42:49.987Z,67.54
2019-01-14T05:45:15.885Z,67.62
2019-01-14T05:47:41.759Z,67.30
2019-01-14T05:50:10.363Z,67.23
2019-01-14T05:52:36.354Z,66.85
2019-01-14T05:55:03.873Z,66.50
2019-01-14T05:57:29.755Z,66.06
2019-01-14T05:59:55.631Z,65.79
2019-01-14T06:02:21.531Z,64.60
2019-01-14T06:04:47.394Z,64.61
2019-01-14T06:07:13.284Z,65.18
2019-01-14T06:09:39.166Z,65.09
2019-01-14T06:12:05.057Z,64.77
2019-01-14T06:14:30.921Z,64.07
2019-01-14T06:16:56.808Z,63.46
2019-01-14T06:19:22.769Z,63.86
2019-01-14T06:21:48.711Z,64.87
2019-01-14T06:24:15.616Z,64.85
2019-01-14T06:26:41.528Z,64.92
2019-01-14T06:29:07.521Z,65.71
2019-01-14T06:31:33.491Z,65.88
2019-01-14T06:33:59.393Z,65.34
2019-01-14T06:36:25.282Z,65.25
2019-01-14T06:38:51.187Z,64.94
2019-01-14T06:41:17.065Z,64.55
2019-01-14T06:43:43.055Z,65.22
2019-01-14T06:46:08.939Z,65.58
2019-01-14T06:48:34.945Z,64.81
2019-01-14T06:51:00.804Z,65.29
2019-01-14T06:53:26.697Z,64.88
2019-01-14T06:55:52.575Z,64.72
2019-01-14T06:58:18.438Z,65.06
2019-01-14T07:00:44.322Z,65.13
2019-01-14T07:03:10.182Z,65.43
2019-01-14T07:05:36.070Z,67.32
2019-01-14T07:08:01.964Z,64.85
2019-01-14T07:10:27.865Z,65.71
2019-01-14T07:12:53.827Z,67.30
2019-01-14T07:15:19.787Z,64.24
2019-01-14T07:17:45.679Z,64.21
2019-01-14T07:20:12.572Z,63.21
2019-01-14T07:22:38.497Z,63.03
2019-01-14T07:25:06.405Z,62.79
2019-01-14T07:27:32.265Z,62.71
2019-01-14T07:29:58.249Z,63.20
2019-01-14T07:32:24.124Z,63.13
2019-01-14T07:34:49.993Z,63.91
2019-01-14T07:37:16.127Z,63.48
2019-01-14T07:39:42.006Z,63.03
2019-01-14T07:42:07.978Z,62.55
2019-01-14T07:44:33.937Z,62.65
2019-01-14T07:46:59.845Z,63.07
2019-01-14T07:49:25.748Z,63.63
2019-01-14T07:51:51.648Z,63.84
2019-01-14T07:54:17.520Z,63.77
2019-01-14T07:56:43.834Z,63.26
2019-01-14T07:59:09.813Z,63.64
2019-01-14T08:01:35.671Z,63.61
2019-01-14T08:04:01.535Z,63.97
2019-01-14T08:06:27.424Z,63.81
2019-01-14T08:08:53.310Z,64.11
2019-01-14T08:11:19.272Z,63.78
2019-01-14T08:13:45.143Z,63.66
2019-01-14T08:16:11.029Z,63.54
2019-01-14T08:18:36.915Z,63.43
2019-01-14T08:21:02.872Z,63.23
2019-01-14T08:23:28.771Z,63.08
2019-01-14T08:25:55.399Z,63.18
2019-01-14T08:28:21.287Z,63.55
2019-01-14T08:30:47.147Z,63.29
2019-01-14T08:33:13.033Z,63.26
2019-01-14T08:35:38.928Z,62.42
2019-01-14T08:38:04.811Z,62.25
2019-01-14T08:40:30.656Z,62.71
2019-01-14T08:42:56.529Z,62.76
2019-01-14T08:45:22.399Z,62.84
2019-01-14T08:47:48.268Z,61.85
2019-01-14T08:50:16.145Z,61.95
2019-01-14T08:52:42.061Z,61.37
2019-01-14T08:55:07.979Z,61.37
2019-01-14T08:57:33.854Z,61.20
2019-01-14T08:59:59.707Z,61.03
2019-01-14T09:02:25.581Z,60.26
2019-01-14T09:04:51.568Z,60.28
2019-01-14T09:07:17.526Z,60.39
2019-01-14T09:09:43.756Z,60.32
2019-01-14T09:12:09.632Z,59.31
2019-01-14T09:14:35.529Z,58.17
2019-01-14T09:17:01.515Z,57.30
2019-01-14T09:19:27.397Z,57.09
2019-01-14T09:21:53.282Z,57.25
2019-01-14T09:24:19.226Z,56.46
2019-01-14T09:26:45.842Z,56.32
2019-01-14T09:29:11.727Z,55.79
2019-01-14T09:31:37.605Z,54.86
2019-01-14T09:34:05.177Z,54.07
2019-01-14T09:36:31.081Z,54.34
2019-01-14T09:38:56.943Z,54.56
2019-01-14T09:41:22.936Z,54.52
2019-01-14T09:43:48.814Z,54.69
2019-01-14T09:46:14.710Z,54.75
2019-01-14T09:48:40.552Z,54.77
2019-01-14T09:51:06.550Z,54.25
2019-01-14T09:53:32.462Z,53.76
2019-01-14T09:55:58.470Z,53.27
2019-01-14T09:58:24.373Z,53.09
2019-01-14T10:00:50.333Z,53.07
2019-01-14T10:03:16.207Z,52.58
2019-01-14T10:05:42.163Z,52.73
2019-01-14T10:08:08.051Z,52.43
2019-01-14T10:10:33.948Z,52.21
2019-01-14T10:12:59.839Z,52.13
2019-01-14T10:15:25.691Z,52.07
2019-01-14T10:17:59.433Z,52.17
2019-01-14T10:20:25.331Z,51.87
2019-01-14T10:22:51.314Z,51.64
2019-01-14T10:25:17.285Z,52.13
2019-01-14T10:27:43.959Z,52.23
2019-01-14T10:30:13.441Z,52.06
2019-01-14T10:32:39.319Z,51.80
2019-01-14T10:35:06.685Z,51.60
2019-01-14T10:37:32.604Z,51.56
2019-01-14T10:39:58.446Z,51.29
2019-01-14T10:42:24.433Z,50.97
2019-01-14T10:44:50.307Z,51.11
2019-01-14T10:47:16.292Z,50.85
2019-01-14T10:49:42.135Z,50.96
2019-01-14T10:52:08.922Z,50.82
2019-01-14T10:54:34.791Z,50.17
2019-01-14T10:57:00.835Z,50.12
2019-01-14T10:59:26.794Z,50.13
2019-01-14T11:01:52.665Z,49.87
2019-01-14T11:04:18.565Z,50.16
2019-01-14T11:06:44.468Z,49.59
2019-01-14T11:09:10.396Z,49.34
2019-01-14T11:11:36.288Z,49.06
2019-01-14T11:14:02.198Z,49.09
2019-01-14T11:16:28.048Z,48.81
2019-01-14T11:18:53.923Z,48.65
2019-01-14T11:21:19.921Z,48.21
2019-01-14T11:23:45.798Z,48.42
2019-01-14T11:26:12.328Z,48.36
2019-01-14T11:28:38.890Z,48.47
2019-01-14T11:31:06.373Z,48.29
2019-01-14T11:33:34.256Z,48.05
2019-01-14T11:36:00.226Z,48.12
2019-01-14T11:38:40.541Z,47.83
2019-01-14T11:41:06.505Z,47.83
2019-01-14T11:43:32.372Z,47.90
2019-01-14T11:45:58.263Z,47.80
2019-01-14T11:48:24.151Z,47.63
2019-01-14T11:50:50.017Z,47.11
2019-01-14T11:53:15.895Z,47.63
2019-01-14T11:55:41.883Z,46.96
2019-01-14T11:58:07.763Z,46.60
2019-01-14T12:00:36.872Z,46.62
2019-01-14T12:03:01.472Z,46.68
2019-01-14T12:05:27.349Z,46.71
2019-01-14T12:07:53.216Z,46.25
2019-01-14T12:10:19.323Z,46.08
2019-01-14T12:12:45.185Z,46.18
2019-01-14T12:15:16.353Z,45.69
2019-01-14T12:17:42.227Z,45.54
2019-01-14T12:20:11.807Z,45.43
2019-01-14T12:22:37.673Z,45.09
2019-01-14T12:25:05.745Z,44.95
2019-01-14T12:27:31.676Z,44.46
2019-01-14T12:29:58.147Z,44.14
2019-01-14T12:32:23.998Z,44.23
2019-01-14T12:34:49.989Z,44.52
2019-01-14T12:37:15.993Z,44.53
2019-01-14T12:39:41.882Z,43.94
2019-01-14T12:42:07.738Z,43.57
2019-01-14T12:44:33.706Z,43.99
2019-01-14T12:46:59.585Z,43.83
2019-01-14T12:49:25.459Z,43.21
2019-01-14T12:51:51.308Z,42.96
2019-01-14T12:54:17.281Z,41.96
2019-01-14T12:56:43.176Z,40.67
2019-01-14T12:59:09.067Z,40.53
2019-01-14T13:01:34.937Z,34.24
2019-01-14T13:04:00.817Z,26.46
2019-01-14T13:06:26.680Z,25.74
2019-01-14T13:08:52.577Z,23.74
2019-01-14T13:11:23.197Z,22.74
2019-01-14T13:13:46.251Z,22.84
2019-01-14T13:16:12.113Z,22.82
2019-01-14T13:18:37.979Z,22.72
2019-01-14T13:21:04.259Z,25.58
2019-01-14T13:23:32.298Z,28.78
2019-01-14T13:25:57.905Z,27.62
2019-01-14T13:28:23.817Z,28.58
2019-01-14T13:30:50.287Z,30.12
2019-01-14T13:33:16.138Z,33.70
2019-01-14T13:35:42.128Z,36.39
2019-01-14T13:38:07.999Z,37.31
2019-01-14T13:40:34.369Z,37.98
2019-01-14T13:43:00.372Z,38.62
2019-01-14T13:45:26.280Z,39.83
2019-01-14T13:47:52.143Z,39.84
2019-01-14T13:50:23.381Z,39.60
2019-01-14T13:52:49.294Z,39.67
2019-01-14T13:55:15.164Z,36.44
2019-01-14T13:57:40.997Z,35.72
2019-01-14T14:00:13.856Z,36.31
2019-01-14T14:02:39.762Z,36.38
2019-01-14T14:05:06.317Z,36.88
2019-01-14T14:07:32.280Z,31.27
2019-01-14T14:09:58.171Z,22.39
2019-01-14T14:12:24.051Z,20.32
2019-01-14T14:14:49.899Z,19.57
2019-01-14T14:17:15.930Z,19.71
2019-01-14T14:19:41.800Z,19.71
2019-01-14T14:22:11.679Z,19.95
2019-01-14T14:24:35.461Z,19.58
2019-01-14T14:27:01.358Z,19.68
2019-01-14T14:29:27.246Z,19.56
2019-01-14T14:31:53.522Z,19.43
2019-01-14T14:34:19.420Z,19.14
2019-01-14T14:36:45.295Z,19.21
2019-01-14T14:39:11.171Z,19.32
2019-01-14T14:41:37.042Z,19.18
2019-01-14T14:44:02.969Z,19.67
2019-01-14T14:46:28.846Z,18.98
2019-01-14T14:48:54.703Z,19.31
2019-01-14T14:51:20.603Z,19.50
2019-01-14T14:53:46.454Z,19.07
2019-01-14T14:56:12.365Z,19.03
2019-01-14T14:58:38.249Z,19.03
2019-01-14T15:01:04.142Z,18.96
2019-01-14T15:03:30.014Z,19.28
2019-01-14T15:05:55.917Z,19.58
2019-01-14T15:08:21.800Z,19.02
2019-01-14T15:10:47.676Z,18.91
2019-01-14T15:13:13.530Z,19.63
2019-01-14T15:15:39.420Z,19.51
2019-01-14T15:18:05.273Z,19.11
2019-01-14T15:20:31.160Z,19.17
2019-01-14T15:22:57.062Z,19.27
2019-01-14T15:25:22.959Z,19.08
2019-01-14T15:27:48.872Z,18.91
2019-01-14T15:30:19.843Z,18.92
2019-01-14T15:32:46.720Z,19.60
2019-01-14T15:35:12.870Z,19.04
2019-01-14T15:37:38.742Z,18.87
2019-01-14T15:40:08.131Z,18.88
2019-01-14T15:42:34.008Z,18.49
2019-01-14T15:44:59.880Z,18.54
2019-01-14T15:47:25.786Z,18.94
2019-01-14T15:49:51.647Z,19.09
2019-01-14T15:52:17.515Z,18.50
2019-01-14T15:54:43.400Z,19.26
2019-01-14T15:57:09.289Z,19.03
2019-01-14T15:59:35.163Z,19.03
2019-01-14T16:02:01.043Z,19.10
2019-01-14T16:04:27.102Z,18.92
2019-01-14T16:06:53.166Z,18.90
2019-01-14T16:09:19.045Z,19.43
2019-01-14T16:11:45.035Z,19.98
2019-01-14T16:14:10.897Z,20.32
2019-01-14T16:16:36.970Z,19.68
2019-01-14T16:19:02.841Z,20.38
2019-01-14T16:21:28.707Z,20.88
2019-01-14T16:23:54.573Z,21.37
2019-01-14T16:26:20.475Z,21.38
2019-01-14T16:28:46.332Z,21.45
2019-01-14T16:31:12.219Z,21.96
2019-01-14T16:33:39.433Z,22.02
2019-01-14T16:36:05.336Z,22.15
2019-01-14T16:38:31.236Z,22.37
2019-01-14T16:40:57.105Z,22.62
2019-01-14T16:43:22.956Z,22.28
2019-01-14T16:45:48.832Z,22.63
2019-01-14T16:48:14.728Z,22.98
2019-01-14T16:50:40.706Z,22.87
2019-01-14T16:53:06.573Z,23.24
2019-01-14T16:55:34.337Z,23.54
2019-01-14T16:58:00.322Z,23.90
2019-01-14T17:00:26.282Z,23.96
2019-01-14T17:02:52.206Z,24.12
2019-01-14T17:05:18.042Z,24.31
2019-01-14T17:07:43.912Z,24.01
2019-01-14T17:10:12.285Z,23.68
2019-01-14T17:12:38.167Z,23.92
2019-01-14T17:15:04.226Z,24.19
2019-01-14T17:17:30.219Z,24.49
2019-01-14T17:19:56.083Z,24.34
2019-01-14T17:22:21.949Z,24.74
2019-01-14T17:24:47.813Z,24.66
2019-01-14T17:27:13.688Z,24.77
2019-01-14T17:29:39.661Z,24.68
2019-01-14T17:32:05.545Z,24.51
2019-01-14T17:34:31.872Z,24.62
2019-01-14T17:36:58.354Z,24.40
2019-01-14T17:39:24.259Z,24.29
2019-01-14T17:41:50.519Z,24.48
2019-01-14T17:44:16.373Z,24.42
2019-01-14T17:46:42.344Z,24.62
2019-01-14T17:49:08.214Z,24.61
2019-01-14T17:51:34.097Z,24.78
2019-01-14T17:54:00.161Z,24.40
2019-01-14T17:56:26.040Z,24.24
2019-01-14T17:58:51.935Z,24.23
2019-01-14T18:01:17.957Z,24.28
2019-01-14T18:03:43.812Z,24.57
2019-01-14T18:06:09.680Z,24.20
2019-01-14T18:08:35.549Z,24.52
2019-01-14T18:11:01.933Z,24.19
2019-01-14T18:13:28.114Z,24.75
2019-01-14T18:15:54.006Z,24.91
2019-01-14T18:18:19.924Z,25.08
2019-01-14T18:20:45.816Z,24.68
2019-01-14T18:23:12.390Z,24.87
2019-01-14T18:25:38.412Z,24.96
2019-01-14T18:28:04.300Z,25.64
2019-01-14T18:30:30.179Z,25.28
2019-01-14T18:32:56.245Z,25.65
2019-01-14T18:35:22.955Z,25.46
2019-01-14T18:37:48.826Z,25.67
2019-01-14T18:40:15.374Z,26.48
2019-01-14T18:42:41.297Z,25.99
2019-01-14T18:45:11.017Z,26.51
2019-01-14T18:47:36.912Z,27.25
2019-01-14T18:50:06.366Z,26.55
2019-01-14T18:52:32.244Z,26.88
2019-01-14T18:54:58.118Z,27.66
2019-01-14T18:57:23.979Z,27.94
2019-01-14T18:59:49.882Z,28.00
2019-01-14T19:02:15.735Z,28.37
2019-01-14T19:04:41.604Z,28.65
2019-01-14T19:07:07.511Z,28.45
2019-01-14T19:09:33.375Z,28.26
2019-01-14T19:11:59.348Z,28.80
2019-01-14T19:14:25.217Z,29.07
2019-01-14T19:16:51.096Z,30.03
2019-01-14T19:19:16.986Z,30.83
2019-01-14T19:21:43.124Z,31.07
2019-01-14T19:24:08.962Z,30.24
2019-01-14T19:26:34.855Z,32.58
2019-01-14T19:29:00.737Z,32.60
2019-01-14T19:31:26.731Z,33.33
2019-01-14T19:33:52.634Z,33.64
2019-01-14T19:36:18.806Z,34.14
2019-01-14T19:38:44.683Z,34.08
2019-01-14T19:41:10.578Z,34.47
2019-01-14T19:43:36.445Z,34.55
2019-01-14T19:46:02.335Z,35.15
2019-01-14T19:48:28.538Z,34.00
2019-01-14T19:50:54.367Z,32.91
2019-01-14T19:53:21.158Z,33.43
2019-01-14T19:55:47.171Z,34.26
2019-01-14T19:58:13.182Z,34.55
2019-01-14T20:00:39.087Z,35.21
2019-01-14T20:03:04.991Z,35.47
2019-01-14T20:05:30.871Z,36.25
2019-01-14T20:07:57.070Z,36.40
2019-01-14T20:10:22.964Z,36.84
2019-01-14T20:12:48.896Z,37.07
2019-01-14T20:15:16.956Z,37.01
2019-01-14T20:17:42.827Z,36.51
2019-01-14T20:20:09.260Z,36.93
2019-01-14T20:22:35.096Z,36.57
2019-01-14T20:25:00.996Z,36.19
2019-01-14T20:27:26.861Z,35.64
2019-01-14T20:29:52.772Z,35.83
2019-01-14T20:32:18.626Z,36.45
2019-01-14T20:34:44.588Z,37.28
2019-01-14T20:37:11.443Z,37.74
2019-01-14T20:39:37.311Z,33.67
2019-01-14T20:42:03.228Z,32.32
2019-01-14T20:44:29.208Z,31.29
2019-01-14T20:46:55.227Z,34.19
2019-01-14T20:49:21.112Z,35.09
2019-01-14T20:51:46.963Z,35.53
2019-01-14T20:54:12.855Z,34.49
2019-01-14T20:56:38.721Z,32.70
2019-01-14T20:59:04.670Z,33.14
2019-01-14T21:01:30.645Z,31.75
2019-01-14T21:03:56.741Z,34.38
2019-01-14T21:06:22.883Z,35.07
2019-01-14T21:08:48.926Z,35.70
2019-01-14T21:11:14.841Z,35.78
2019-01-14T21:13:40.959Z,35.95
2019-01-14T21:16:07.085Z,35.94
2019-01-14T21:18:33.173Z,36.35
2019-01-14T21:20:59.310Z,35.17
2019-01-14T21:23:25.193Z,34.89
2019-01-14T21:25:51.190Z,35.21
2019-01-14T21:28:17.113Z,35.76
2019-01-14T21:30:44.310Z,36.16
2019-01-14T21:33:10.437Z,35.12
2019-01-14T21:35:36.465Z,34.63
2019-01-14T21:38:02.812Z,34.84
2019-01-14T21:40:28.717Z,34.99
2019-01-14T21:42:54.795Z,35.22
2019-01-14T21:45:22.807Z,34.68
2019-01-14T21:47:48.811Z,34.73
2019-01-14T21:50:18.815Z,34.39
2019-01-14T21:52:44.798Z,34.42
2019-01-14T21:55:13.139Z,35.04
2019-01-14T21:57:39.198Z,35.19
2019-01-14T22:00:14.251Z,34.44
2019-01-14T22:02:40.650Z,34.22
2019-01-14T22:05:06.518Z,35.00
2019-01-14T22:07:32.437Z,34.81
2019-01-14T22:09:58.346Z,35.90
2019-01-14T22:12:24.253Z,35.76
2019-01-14T22:14:50.146Z,35.76
2019-01-14T22:17:16.142Z,35.69
2019-01-14T22:19:42.157Z,34.86
2019-01-14T22:22:08.050Z,33.64
2019-01-14T22:24:33.957Z,34.49
2019-01-14T22:26:59.848Z,34.53
2019-01-14T22:29:25.724Z,34.86
2019-01-14T22:31:52.267Z,33.48
2019-01-14T22:34:18.167Z,33.39
2019-01-14T22:36:44.281Z,33.50
2019-01-14T22:39:10.487Z,31.24
2019-01-14T22:41:36.423Z,31.47
2019-01-14T22:44:02.260Z,32.15
2019-01-14T22:46:28.121Z,31.87
2019-01-14T22:48:53.992Z,31.50
2019-01-14T22:51:19.870Z,31.91
2019-01-14T22:53:45.754Z,32.51
2019-01-14T22:56:11.585Z,33.41
2019-01-14T22:58:37.574Z,34.23
2019-01-14T23:01:14.040Z,34.85
2019-01-14T23:03:40.132Z,34.76
2019-01-14T23:06:06.010Z,35.59
2019-01-14T23:08:31.897Z,36.05
2019-01-14T23:10:57.756Z,35.75
2019-01-14T23:13:23.637Z,36.39
2019-01-14T23:15:49.543Z,36.91
2019-01-14T23:18:15.398Z,37.65
2019-01-14T23:20:41.312Z,37.68
2019-01-14T23:23:07.163Z,38.48
2019-01-14T23:25:33.037Z,38.83
2019-01-14T23:27:58.893Z,36.90
2019-01-14T23:30:24.773Z,37.27
2019-01-14T23:32:50.677Z,38.00
2019-01-14T23:35:16.537Z,38.21
2019-01-14T23:37:42.837Z,37.78
2019-01-14T23:40:09.425Z,38.12
2019-01-14T23:42:35.472Z,38.03
2019-01-14T23:45:01.447Z,38.38
2019-01-14T23:47:27.430Z,38.38
2019-01-14T23:49:53.298Z,36.90
2019-01-14T23:52:19.192Z,36.74
2019-01-14T23:54:45.043Z,37.07
2019-01-14T23:57:10.929Z,36.60
2019-01-14T23:59:36.811Z,37.45
